createdAt,value
2019-05-29T00:00:41.465Z,23.60
2019-05-29T00:03:10.501Z,23.60
2019-05-29T00:05:38.632Z,23.60
2019-05-29T00:08:06.657Z,23.50
2019-05-29T00:10:34.782Z,23.60
2019-05-29T00:13:02.833Z,23.50
2019-05-29T00:15:30.915Z,23.60
2019-05-29T00:17:59.017Z,23.60
2019-05-29T00:20:27.275Z,23.50
2019-05-29T00:22:55.265Z,23.50
2019-05-29T00:25:23.385Z,23.60
2019-05-29T00:27:51.485Z,23.50
2019-05-29T00:30:19.924Z,23.60
2019-05-29T00:32:48.043Z,23.50
2019-05-29T00:35:16.487Z,23.50
2019-05-29T00:37:44.733Z,23.50
2019-05-29T00:40:13.384Z,23.60
2019-05-29T00:42:41.451Z,23.60
2019-05-29T00:45:11.446Z,23.50
2019-05-29T00:47:39.628Z,23.50
2019-05-29T00:50:08.203Z,23.50
2019-05-29T00:52:36.201Z,23.50
2019-05-29T00:55:04.581Z,23.50
2019-05-29T00:57:32.864Z,23.50
2019-05-29T01:00:01.117Z,23.50
2019-05-29T01:02:29.247Z,23.50
2019-05-29T01:04:57.202Z,23.50
2019-05-29T01:07:25.182Z,23.50
2019-05-29T01:09:53.275Z,23.50
2019-05-29T01:12:21.358Z,23.50
2019-05-29T01:14:50.612Z,23.50
2019-05-29T01:17:19.800Z,23.50
2019-05-29T01:19:48.906Z,23.50
2019-05-29T01:22:18.665Z,23.50
2019-05-29T01:24:46.774Z,23.50
2019-05-29T01:27:15.160Z,23.50
2019-05-29T01:29:43.138Z,23.50
2019-05-29T01:32:11.149Z,23.50
2019-05-29T01:34:39.435Z,23.50
2019-05-29T01:37:07.416Z,23.50
2019-05-29T01:39:35.446Z,23.50
2019-05-29T01:42:03.756Z,23.50
2019-05-29T01:44:31.741Z,23.50
2019-05-29T01:46:59.760Z,23.50
2019-05-29T01:49:28.047Z,23.50
2019-05-29T01:51:56.150Z,23.50
2019-05-29T01:54:24.148Z,23.50
2019-05-29T01:56:52.150Z,23.50
2019-05-29T01:59:20.120Z,23.50
2019-05-29T02:01:48.116Z,23.50
2019-05-29T02:04:16.117Z,23.50
2019-05-29T02:06:44.128Z,23.50
2019-05-29T02:09:12.124Z,23.50
2019-05-29T02:11:40.124Z,23.50
2019-05-29T02:14:09.231Z,23.50
2019-05-29T02:16:37.233Z,23.50
2019-05-29T02:19:05.558Z,23.40
2019-05-29T02:21:33.554Z,23.40
2019-05-29T02:24:03.151Z,23.50
2019-05-29T02:26:31.137Z,23.40
2019-05-29T02:28:59.374Z,23.40
2019-05-29T02:31:28.914Z,23.40
2019-05-29T02:33:57.137Z,23.40
2019-05-29T02:36:26.656Z,23.40
2019-05-29T02:38:55.160Z,23.40
2019-05-29T02:41:24.205Z,23.40
2019-05-29T02:43:53.041Z,23.40
2019-05-29T02:46:21.786Z,23.40
2019-05-29T02:48:50.256Z,23.40
2019-05-29T02:51:19.614Z,23.40
2019-05-29T02:53:47.770Z,23.40
2019-05-29T02:56:15.753Z,23.40
2019-05-29T02:58:44.553Z,23.40
2019-05-29T03:01:12.541Z,23.40
2019-05-29T03:03:40.637Z,23.40
2019-05-29T03:06:08.598Z,23.40
2019-05-29T03:08:36.712Z,23.40
2019-05-29T03:11:04.727Z,23.40
2019-05-29T03:13:33.685Z,23.40
2019-05-29T03:16:10.751Z,23.40
2019-05-29T03:18:32.578Z,23.40
2019-05-29T03:21:01.603Z,23.40
2019-05-29T03:23:31.119Z,23.40
2019-05-29T03:25:59.475Z,23.40
2019-05-29T03:28:27.639Z,23.40
2019-05-29T03:30:55.688Z,23.30
2019-05-29T03:33:23.638Z,23.30
2019-05-29T03:35:51.607Z,23.40
2019-05-29T03:38:19.613Z,23.30
2019-05-29T03:40:47.972Z,23.30
2019-05-29T03:43:15.993Z,23.40
2019-05-29T03:45:44.282Z,23.40
2019-05-29T03:48:12.579Z,23.30
2019-05-29T03:50:40.604Z,23.30
2019-05-29T03:53:08.891Z,23.30
2019-05-29T03:55:37.896Z,23.40
2019-05-29T03:58:06.289Z,23.30
2019-05-29T04:00:41.749Z,23.40
2019-05-29T04:03:04.190Z,23.30
2019-05-29T04:05:33.418Z,23.30
2019-05-29T04:08:02.031Z,23.30
2019-05-29T04:10:33.694Z,23.30
2019-05-29T04:13:00.711Z,23.30
2019-05-29T04:15:33.762Z,23.30
2019-05-29T04:18:04.409Z,23.30
2019-05-29T04:20:36.066Z,23.30
2019-05-29T04:23:07.654Z,23.30
2019-05-29T04:25:40.577Z,23.30
2019-05-29T04:28:08.196Z,23.30
2019-05-29T04:30:38.645Z,23.30
2019-05-29T04:33:07.319Z,23.30
2019-05-29T04:35:36.874Z,23.30
2019-05-29T04:38:05.184Z,23.30
2019-05-29T04:40:34.806Z,23.30
2019-05-29T04:43:03.011Z,23.30
2019-05-29T04:45:33.036Z,23.30
2019-05-29T04:48:00.985Z,23.30
2019-05-29T04:50:31.491Z,23.30
2019-05-29T04:53:00.068Z,23.30
2019-05-29T04:55:28.625Z,23.30
2019-05-29T04:57:56.753Z,23.30
2019-05-29T05:00:24.757Z,23.30
2019-05-29T05:02:52.726Z,23.30
2019-05-29T05:05:20.748Z,23.30
2019-05-29T05:07:48.735Z,23.30
2019-05-29T05:10:40.903Z,23.30
2019-05-29T05:13:09.329Z,23.30
2019-05-29T05:15:38.110Z,23.30
2019-05-29T05:18:06.880Z,23.30
2019-05-29T05:20:36.255Z,23.30
2019-05-29T05:23:05.223Z,23.30
2019-05-29T05:25:34.185Z,23.30
2019-05-29T05:28:02.909Z,23.30
2019-05-29T05:30:32.305Z,23.30
2019-05-29T05:33:00.895Z,23.30
2019-05-29T05:35:29.046Z,23.40
2019-05-29T05:37:57.016Z,23.40
2019-05-29T05:40:25.027Z,23.40
2019-05-29T05:42:52.995Z,23.40
2019-05-29T05:45:20.986Z,23.40
2019-05-29T05:47:56.898Z,23.40
2019-05-29T05:50:19.169Z,23.40
2019-05-29T05:52:47.181Z,23.40
2019-05-29T05:55:15.347Z,23.40
2019-05-29T05:57:43.342Z,23.40
2019-05-29T06:00:13.797Z,23.40
2019-05-29T06:02:42.145Z,23.40
2019-05-29T06:05:10.959Z,23.40
2019-05-29T06:07:40.259Z,23.30
2019-05-29T06:10:08.737Z,23.30
2019-05-29T06:12:38.699Z,23.30
2019-05-29T06:15:07.065Z,23.30
2019-05-29T06:17:36.620Z,23.30
2019-05-29T06:20:05.397Z,23.40
2019-05-29T06:22:39.115Z,23.40
2019-05-29T06:25:08.163Z,23.40
2019-05-29T06:27:37.128Z,23.30
2019-05-29T06:30:05.390Z,23.40
2019-05-29T06:32:33.537Z,23.40
2019-05-29T06:35:02.151Z,23.40
2019-05-29T06:37:30.365Z,23.30
2019-05-29T06:39:58.460Z,23.30
2019-05-29T06:42:29.803Z,23.30
2019-05-29T06:44:58.513Z,23.30
2019-05-29T06:47:26.544Z,23.30
2019-05-29T06:49:54.638Z,23.30
2019-05-29T06:52:23.644Z,23.30
2019-05-29T06:54:51.676Z,23.30
2019-05-29T06:57:19.658Z,23.30
2019-05-29T06:59:48.935Z,23.30
2019-05-29T07:02:17.032Z,23.30
2019-05-29T07:04:45.003Z,23.30
2019-05-29T07:07:13.103Z,23.30
2019-05-29T07:09:41.149Z,23.30
2019-05-29T07:12:09.133Z,23.30
2019-05-29T07:14:38.188Z,23.30
2019-05-29T07:17:06.223Z,23.30
2019-05-29T07:19:52.165Z,23.30
2019-05-29T07:22:04.810Z,23.30
2019-05-29T07:24:33.838Z,23.30
2019-05-29T07:27:01.856Z,23.30
2019-05-29T07:29:29.954Z,23.30
2019-05-29T07:31:58.183Z,23.30
2019-05-29T07:34:26.433Z,23.30
2019-05-29T07:36:54.552Z,23.30
2019-05-29T07:39:22.533Z,23.30
2019-05-29T07:41:50.500Z,23.30
2019-05-29T07:44:18.612Z,23.30
2019-05-29T07:46:47.126Z,23.30
2019-05-29T07:49:16.738Z,23.30
2019-05-29T07:51:45.127Z,23.30
2019-05-29T07:54:14.686Z,23.30
2019-05-29T07:56:42.999Z,23.30
2019-05-29T07:59:11.299Z,23.30
2019-05-29T08:01:39.249Z,23.30
2019-05-29T08:04:07.331Z,23.30
2019-05-29T08:06:35.447Z,23.20
2019-05-29T08:09:05.451Z,23.30
2019-05-29T08:11:33.593Z,23.30
2019-05-29T08:14:01.973Z,23.30
2019-05-29T08:16:30.038Z,23.30
2019-05-29T08:18:58.115Z,23.30
2019-05-29T08:21:26.521Z,23.30
2019-05-29T08:23:54.488Z,23.30
2019-05-29T08:26:22.747Z,23.20
2019-05-29T08:28:51.291Z,23.20
2019-05-29T08:31:19.385Z,23.20
2019-05-29T08:33:47.385Z,23.20
2019-05-29T08:36:15.395Z,23.20
2019-05-29T08:38:44.518Z,23.20
2019-05-29T08:41:13.366Z,23.20
2019-05-29T08:43:42.539Z,23.20
2019-05-29T08:46:10.585Z,23.20
2019-05-29T08:48:38.556Z,23.20
2019-05-29T08:51:06.727Z,23.30
2019-05-29T08:53:34.678Z,23.30
2019-05-29T08:56:02.943Z,23.30
2019-05-29T08:58:31.075Z,23.30
2019-05-29T09:00:59.078Z,23.30
2019-05-29T09:03:27.095Z,23.30
2019-05-29T09:06:08.596Z,23.30
2019-05-29T09:08:29.387Z,23.30
2019-05-29T09:10:57.690Z,23.30
2019-05-29T09:13:25.946Z,23.40
2019-05-29T09:15:54.875Z,23.40
2019-05-29T09:18:25.519Z,23.40
2019-05-29T09:21:02.919Z,23.40
2019-05-29T09:23:23.388Z,23.40
2019-05-29T09:25:51.490Z,23.40
2019-05-29T09:28:20.335Z,23.50
2019-05-29T09:30:48.596Z,23.80
2019-05-29T09:33:19.552Z,23.80
2019-05-29T09:35:47.317Z,23.80
2019-05-29T09:38:16.751Z,23.70
2019-05-29T09:40:44.935Z,23.70
2019-05-29T09:43:13.172Z,23.60
2019-05-29T09:45:41.156Z,23.60
2019-05-29T09:48:09.183Z,23.50
2019-05-29T09:50:49.417Z,23.50
2019-05-29T09:53:08.648Z,23.50
2019-05-29T09:55:36.634Z,23.50
2019-05-29T09:58:05.193Z,23.50
2019-05-29T10:00:33.195Z,23.50
2019-05-29T10:03:01.484Z,23.50
2019-05-29T10:05:30.164Z,23.50
2019-05-29T10:07:59.641Z,23.50
2019-05-29T10:10:27.930Z,23.50
2019-05-29T10:12:56.477Z,23.50
2019-05-29T10:15:25.070Z,23.50
2019-05-29T10:17:54.118Z,23.50
2019-05-29T10:20:23.500Z,23.50
2019-05-29T10:22:51.661Z,23.50
2019-05-29T10:25:20.243Z,23.50
2019-05-29T10:27:48.307Z,23.50
2019-05-29T10:30:18.580Z,23.50
2019-05-29T10:32:46.547Z,23.50
2019-05-29T10:35:14.591Z,23.50
2019-05-29T10:37:42.865Z,23.50
2019-05-29T10:40:11.475Z,23.50
2019-05-29T10:42:39.904Z,23.50
2019-05-29T10:45:08.608Z,23.50
2019-05-29T10:47:36.677Z,23.50
2019-05-29T10:50:06.205Z,23.50
2019-05-29T10:52:34.264Z,23.50
2019-05-29T10:55:02.646Z,23.50
2019-05-29T10:57:31.736Z,23.50
2019-05-29T10:59:59.732Z,23.50
2019-05-29T11:02:27.701Z,23.50
2019-05-29T11:04:59.079Z,23.50
2019-05-29T11:07:25.626Z,23.50
2019-05-29T11:09:54.260Z,23.50
2019-05-29T11:12:22.360Z,23.50
2019-05-29T11:14:50.813Z,23.50
2019-05-29T11:17:18.900Z,23.50
2019-05-29T11:19:47.188Z,23.50
2019-05-29T11:22:25.672Z,23.50
2019-05-29T11:24:45.142Z,23.50
2019-05-29T11:27:13.107Z,23.50
2019-05-29T11:29:41.117Z,23.50
2019-05-29T11:32:09.184Z,23.50
2019-05-29T11:34:37.148Z,23.50
2019-05-29T11:37:05.413Z,23.50
2019-05-29T11:39:33.395Z,23.50
2019-05-29T11:42:01.377Z,23.50
2019-05-29T11:44:29.475Z,23.50
2019-05-29T11:46:58.178Z,23.50
2019-05-29T11:49:26.292Z,23.50
2019-05-29T11:52:14.685Z,23.50
2019-05-29T11:54:24.792Z,23.50
2019-05-29T11:56:53.666Z,23.50
2019-05-29T11:59:22.911Z,23.50
2019-05-29T12:01:52.595Z,23.50
2019-05-29T12:04:26.262Z,23.50
2019-05-29T12:06:51.221Z,23.50
2019-05-29T12:09:32.369Z,23.50
2019-05-29T12:11:49.152Z,23.50
2019-05-29T12:14:17.174Z,23.50
2019-05-29T12:16:45.118Z,23.50
2019-05-29T12:19:13.087Z,23.50
2019-05-29T12:21:42.740Z,23.50
2019-05-29T12:24:10.964Z,23.60
2019-05-29T12:26:38.932Z,23.50
2019-05-29T12:29:11.348Z,23.50
2019-05-29T12:31:37.784Z,23.50
2019-05-29T12:34:17.875Z,23.60
2019-05-29T12:36:35.965Z,23.50
2019-05-29T12:39:06.459Z,23.50
2019-05-29T12:41:34.414Z,23.50
2019-05-29T12:44:03.563Z,23.50
2019-05-29T12:46:31.686Z,23.50
2019-05-29T12:48:59.632Z,23.50
2019-05-29T12:51:27.612Z,23.50
2019-05-29T12:53:55.873Z,23.50
2019-05-29T12:56:23.846Z,23.50
2019-05-29T12:58:51.835Z,23.50
2019-05-29T13:01:20.131Z,23.50
2019-05-29T13:03:48.393Z,23.50
2019-05-29T13:06:16.386Z,23.50
2019-05-29T13:08:44.359Z,23.60
2019-05-29T13:11:12.327Z,23.60
2019-05-29T13:13:40.376Z,23.60
2019-05-29T13:16:08.633Z,23.50
2019-05-29T13:18:36.897Z,23.60
2019-05-29T13:21:05.256Z,23.50
2019-05-29T13:23:44.778Z,23.50
2019-05-29T13:26:03.705Z,23.50
2019-05-29T13:28:32.084Z,23.50
2019-05-29T13:31:00.160Z,23.60
2019-05-29T13:33:28.138Z,23.60
2019-05-29T13:35:57.793Z,23.60
2019-05-29T13:38:26.306Z,23.60
2019-05-29T13:40:54.328Z,23.60
2019-05-29T13:43:22.611Z,23.60
2019-05-29T13:45:50.880Z,23.60
2019-05-29T13:48:18.849Z,23.60
2019-05-29T13:50:48.878Z,23.60
2019-05-29T13:53:16.762Z,23.60
2019-05-29T13:55:44.729Z,23.60
2019-05-29T13:58:12.712Z,23.60
2019-05-29T14:00:40.658Z,23.60
2019-05-29T14:03:09.346Z,23.70
2019-05-29T14:05:37.442Z,23.70
2019-05-29T14:08:06.872Z,23.70
2019-05-29T14:10:35.437Z,23.70
2019-05-29T14:13:03.591Z,23.70
2019-05-29T14:15:31.556Z,23.70
2019-05-29T14:18:00.682Z,23.70
2019-05-29T14:20:29.373Z,23.70
2019-05-29T14:22:57.468Z,23.70
2019-05-29T14:25:25.493Z,23.70
2019-05-29T14:27:53.862Z,23.80
2019-05-29T14:30:24.529Z,23.80
2019-05-29T14:32:52.501Z,23.80
2019-05-29T14:35:20.492Z,23.80
2019-05-29T14:37:48.491Z,23.80
2019-05-29T14:40:16.556Z,23.80
2019-05-29T14:42:44.811Z,23.80
2019-05-29T14:45:13.486Z,23.80
2019-05-29T14:47:42.588Z,23.80
2019-05-29T14:50:11.343Z,23.80
2019-05-29T14:52:40.837Z,23.80
2019-05-29T14:55:17.402Z,23.80
2019-05-29T14:57:40.348Z,23.80
2019-05-29T15:00:20.642Z,23.80
2019-05-29T15:02:39.219Z,23.80
2019-05-29T15:05:07.682Z,23.80
2019-05-29T15:07:35.915Z,23.80
2019-05-29T15:10:12.782Z,23.90
2019-05-29T15:12:35.118Z,23.90
2019-05-29T15:15:04.753Z,23.90
2019-05-29T15:17:32.996Z,23.90
2019-05-29T15:20:01.010Z,23.90
2019-05-29T15:22:29.040Z,23.90
2019-05-29T15:25:08.080Z,23.90
2019-05-29T15:27:27.057Z,23.90
2019-05-29T15:29:55.050Z,23.90
2019-05-29T15:32:23.093Z,23.90
2019-05-29T15:34:51.367Z,23.90
2019-05-29T15:37:20.404Z,23.90
2019-05-29T15:39:48.510Z,24.00
2019-05-29T15:42:17.060Z,24.00
2019-05-29T15:44:45.419Z,24.00
2019-05-29T15:47:13.425Z,24.00
2019-05-29T15:49:41.699Z,24.00
2019-05-29T15:52:11.011Z,24.00
2019-05-29T15:54:39.336Z,24.00
2019-05-29T15:57:07.325Z,24.10
2019-05-29T15:59:35.513Z,24.10
2019-05-29T16:02:05.390Z,24.10
2019-05-29T16:04:33.494Z,24.10
2019-05-29T16:07:01.534Z,24.10
2019-05-29T16:09:29.526Z,24.20
2019-05-29T16:11:57.550Z,24.20
2019-05-29T16:14:25.556Z,24.20
2019-05-29T16:16:53.662Z,24.20
2019-05-29T16:19:22.563Z,24.20
2019-05-29T16:21:50.608Z,24.30
2019-05-29T16:24:19.018Z,24.30
2019-05-29T16:26:47.118Z,24.30
2019-05-29T16:29:17.349Z,24.30
2019-05-29T16:31:44.976Z,24.30
2019-05-29T16:34:14.343Z,24.30
2019-05-29T16:36:42.942Z,24.40
2019-05-29T16:39:11.415Z,24.30
2019-05-29T16:41:39.914Z,24.30
2019-05-29T16:44:08.866Z,24.40
2019-05-29T16:46:36.839Z,24.40
2019-05-29T16:49:05.179Z,24.40
2019-05-29T16:51:33.113Z,24.40
2019-05-29T16:54:01.096Z,24.40
2019-05-29T16:56:29.134Z,24.40
2019-05-29T16:58:57.126Z,24.40
2019-05-29T17:01:25.168Z,24.40
2019-05-29T17:03:53.471Z,24.50
2019-05-29T17:06:22.425Z,24.50
2019-05-29T17:08:50.572Z,24.40
2019-05-29T17:11:18.637Z,24.50
2019-05-29T17:13:46.669Z,24.50
2019-05-29T17:16:14.641Z,24.50
2019-05-29T17:18:43.659Z,24.40
2019-05-29T17:21:11.714Z,24.50
2019-05-29T17:23:40.139Z,24.50
2019-05-29T17:26:10.985Z,24.50
2019-05-29T17:28:38.377Z,24.50
2019-05-29T17:31:06.392Z,24.50
2019-05-29T17:33:34.792Z,24.50
2019-05-29T17:36:02.888Z,24.50
2019-05-29T17:38:31.028Z,24.60
2019-05-29T17:40:59.021Z,24.50
2019-05-29T17:43:28.750Z,24.50
2019-05-29T17:45:57.017Z,24.50
2019-05-29T17:48:26.035Z,24.50
2019-05-29T17:50:54.098Z,24.50
2019-05-29T17:53:22.516Z,24.50
2019-05-29T17:55:50.828Z,24.50
2019-05-29T17:58:21.034Z,24.40
2019-05-29T18:00:48.931Z,24.40
2019-05-29T18:03:18.346Z,24.40
2019-05-29T18:05:46.388Z,24.40
2019-05-29T18:08:16.671Z,24.40
2019-05-29T18:10:44.715Z,24.40
2019-05-29T18:13:12.892Z,24.40
2019-05-29T18:15:41.046Z,24.40
2019-05-29T18:18:09.422Z,24.40
2019-05-29T18:20:37.654Z,24.30
2019-05-29T18:23:05.700Z,24.30
2019-05-29T18:25:33.812Z,24.30
2019-05-29T18:28:01.789Z,24.30
2019-05-29T18:30:29.858Z,24.30
2019-05-29T18:32:57.934Z,24.30
2019-05-29T18:35:26.949Z,24.30
2019-05-29T18:37:55.047Z,24.30
2019-05-29T18:40:24.222Z,24.30
2019-05-29T18:42:52.431Z,24.30
2019-05-29T18:45:22.877Z,24.30
2019-05-29T18:47:50.693Z,24.30
2019-05-29T18:50:21.401Z,24.20
2019-05-29T18:52:49.617Z,24.20
2019-05-29T18:55:18.488Z,24.20
2019-05-29T18:57:46.491Z,24.20
2019-05-29T19:00:15.424Z,24.20
2019-05-29T19:02:43.633Z,24.20
2019-05-29T19:05:11.802Z,24.20
2019-05-29T19:07:39.800Z,24.20
2019-05-29T19:10:09.482Z,24.20
2019-05-29T19:12:37.556Z,24.20
2019-05-29T19:15:06.033Z,24.20
2019-05-29T19:17:34.627Z,24.20
2019-05-29T19:20:03.297Z,24.20
2019-05-29T19:22:32.409Z,24.10
2019-05-29T19:25:00.721Z,24.10
2019-05-29T19:27:37.502Z,24.10
2019-05-29T19:29:58.621Z,24.10
2019-05-29T19:32:27.258Z,24.10
2019-05-29T19:34:55.501Z,24.10
2019-05-29T19:37:23.897Z,24.10
2019-05-29T19:39:52.120Z,24.10
2019-05-29T19:42:20.211Z,24.10
2019-05-29T19:44:48.394Z,24.10
2019-05-29T19:47:16.593Z,24.10
2019-05-29T19:49:44.626Z,24.10
2019-05-29T19:52:12.842Z,24.10
2019-05-29T19:54:40.928Z,24.10
2019-05-29T19:57:09.044Z,24.10
2019-05-29T19:59:37.276Z,24.10
2019-05-29T20:02:05.470Z,24.10
2019-05-29T20:04:34.724Z,24.10
2019-05-29T20:07:03.158Z,24.10
2019-05-29T20:09:31.451Z,24.10
2019-05-29T20:11:59.401Z,24.10
2019-05-29T20:14:27.628Z,24.10
2019-05-29T20:16:56.105Z,24.10
2019-05-29T20:19:32.414Z,24.10
2019-05-29T20:21:59.841Z,24.10
2019-05-29T20:24:28.749Z,24.10
2019-05-29T20:26:56.907Z,24.10
2019-05-29T20:29:25.036Z,24.10
2019-05-29T20:31:53.437Z,24.10
2019-05-29T20:34:21.560Z,24.10
2019-05-29T20:36:49.601Z,24.10
2019-05-29T20:39:18.386Z,24.10
2019-05-29T20:41:46.894Z,24.10
2019-05-29T20:44:15.024Z,24.10
2019-05-29T20:46:43.136Z,24.10
2019-05-29T20:49:11.296Z,24.10
2019-05-29T20:51:40.287Z,24.10
2019-05-29T20:54:08.495Z,24.10
2019-05-29T20:56:37.665Z,24.10
2019-05-29T20:59:05.847Z,24.10
2019-05-29T21:01:43.009Z,24.10
2019-05-29T21:04:04.139Z,24.10
2019-05-29T21:06:32.485Z,24.10
2019-05-29T21:09:00.497Z,24.10
2019-05-29T21:11:28.644Z,24.10
2019-05-29T21:13:56.852Z,24.10
2019-05-29T21:16:24.818Z,24.10
2019-05-29T21:18:52.795Z,24.10
2019-05-29T21:21:21.553Z,24.10
2019-05-29T21:23:49.528Z,24.10
2019-05-29T21:26:17.493Z,24.10
2019-05-29T21:28:50.463Z,24.10
2019-05-29T21:31:15.373Z,24.10
2019-05-29T21:33:45.823Z,24.10
2019-05-29T21:36:13.231Z,24.10
2019-05-29T21:38:42.231Z,24.10
2019-05-29T21:41:10.260Z,24.10
2019-05-29T21:43:38.638Z,24.10
2019-05-29T21:46:06.596Z,24.10
2019-05-29T21:48:34.547Z,24.10
2019-05-29T21:51:02.561Z,24.10
2019-05-29T21:53:30.647Z,24.10
2019-05-29T21:55:58.582Z,24.10
2019-05-29T21:58:26.608Z,24.00
2019-05-29T22:00:54.662Z,24.00
2019-05-29T22:03:24.546Z,24.10
2019-05-29T22:05:52.630Z,24.10
2019-05-29T22:08:21.584Z,24.00
2019-05-29T22:10:51.376Z,24.00
2019-05-29T22:13:19.782Z,24.00
2019-05-29T22:15:47.747Z,24.00
2019-05-29T22:18:16.139Z,24.00
2019-05-29T22:20:44.108Z,24.00
2019-05-29T22:23:12.352Z,24.00
2019-05-29T22:25:40.332Z,24.00
2019-05-29T22:28:08.323Z,24.00
2019-05-29T22:30:36.366Z,24.00
2019-05-29T22:33:04.337Z,24.00
2019-05-29T22:35:32.372Z,24.00
2019-05-29T22:38:01.688Z,24.00
2019-05-29T22:40:31.297Z,24.00
2019-05-29T22:42:59.980Z,24.00
2019-05-29T22:45:28.677Z,24.00
2019-05-29T22:47:57.815Z,24.00
2019-05-29T22:50:25.846Z,24.00
2019-05-29T22:52:53.907Z,24.10
2019-05-29T22:55:21.872Z,24.00
2019-05-29T22:57:49.872Z,24.00
2019-05-29T23:00:19.341Z,24.10
2019-05-29T23:02:47.568Z,24.10
2019-05-29T23:05:15.884Z,24.10
2019-05-29T23:07:43.945Z,24.10
2019-05-29T23:10:12.844Z,24.10
2019-05-29T23:12:40.918Z,24.10
2019-05-29T23:15:09.287Z,24.10
2019-05-29T23:17:37.238Z,24.10
2019-05-29T23:20:05.505Z,24.10
2019-05-29T23:22:33.480Z,24.10
2019-05-29T23:25:01.458Z,24.00
2019-05-29T23:27:29.702Z,24.10
2019-05-29T23:29:58.889Z,24.10
2019-05-29T23:32:27.301Z,24.10
2019-05-29T23:34:55.317Z,24.10
2019-05-29T23:37:24.695Z,24.10
2019-05-29T23:39:53.092Z,24.10
2019-05-29T23:42:21.156Z,24.10
2019-05-29T23:44:51.953Z,24.10
2019-05-29T23:47:19.006Z,24.10
2019-05-29T23:49:47.010Z,24.10
2019-05-29T23:52:14.979Z,24.10
2019-05-29T23:54:43.010Z,24.10
2019-05-29T23:57:12.293Z,24.10
2019-05-29T23:59:40.258Z,24.10
